createdAt,value
2024-02-15T00:01:06.858Z,102070.38
2024-02-15T00:03:35.821Z,102077.44
2024-02-15T00:06:03.341Z,102081.06
2024-02-15T00:08:31.126Z,102085.03
2024-02-15T00:10:58.070Z,102079.34
2024-02-15T00:13:25.017Z,102071.31
2024-02-15T00:15:51.953Z,102077.22
2024-02-15T00:18:19.768Z,102077.03
2024-02-15T00:20:46.891Z,102084.19
2024-02-15T00:23:13.710Z,102075.75
2024-02-15T00:25:44.633Z,102080.25
2024-02-15T00:28:13.635Z,102080.59
2024-02-15T00:30:40.999Z,102068.41
2024-02-15T00:33:09.111Z,102066.63
2024-02-15T00:35:36.908Z,102067.81
2024-02-15T00:38:04.688Z,102064.72
2024-02-15T00:40:31.575Z,102057.78
2024-02-15T00:42:58.551Z,102067.47
2024-02-15T00:45:26.066Z,102067.91
2024-02-15T00:47:53.198Z,102052.53
2024-02-15T00:50:20.426Z,102052.28
2024-02-15T00:52:47.488Z,102054.69
2024-02-15T00:55:15.588Z,102051.44
2024-02-15T00:57:42.637Z,102041.09
2024-02-15T01:00:10.858Z,102056.44
2024-02-15T01:02:37.905Z,102054.53
2024-02-15T01:05:05.264Z,102057.47
2024-02-15T01:07:32.937Z,102054.78
2024-02-15T01:10:00.176Z,102056.16
2024-02-15T01:12:27.089Z,102061.22
2024-02-15T01:14:54.089Z,102061.06
2024-02-15T01:17:20.922Z,102060.44
2024-02-15T01:19:48.284Z,102056.03
2024-02-15T01:22:15.172Z,102068.22
2024-02-15T01:24:43.073Z,102065.38
2024-02-15T01:27:10.832Z,102071.91
2024-02-15T01:29:37.836Z,102066.91
2024-02-15T01:32:06.647Z,102069.63
2024-02-15T01:34:33.870Z,102072.00
2024-02-15T01:37:01.448Z,102071.19
2024-02-15T01:39:28.523Z,102070.47
2024-02-15T01:41:57.501Z,102059.31
2024-02-15T01:44:25.930Z,102060.38
2024-02-15T01:46:55.942Z,102055.72
2024-02-15T01:49:24.187Z,102054.19
2024-02-15T01:51:53.426Z,102050.50
2024-02-15T01:54:21.304Z,102047.88
2024-02-15T01:56:49.243Z,102052.91
2024-02-15T01:59:17.625Z,102046.66
2024-02-15T02:01:46.116Z,102041.56
2024-02-15T02:04:13.813Z,102048.81
2024-02-15T02:06:41.765Z,102047.03
2024-02-15T02:09:16.409Z,102047.09
2024-02-15T02:11:46.407Z,102046.53
2024-02-15T02:14:13.772Z,102047.03
2024-02-15T02:16:40.807Z,102043.00
2024-02-15T02:19:10.274Z,102045.25
2024-02-15T02:21:39.857Z,102042.00
2024-02-15T02:24:18.336Z,102039.69
2024-02-15T02:26:45.537Z,102045.22
2024-02-15T02:29:12.480Z,102038.69
2024-02-15T02:31:39.630Z,102047.44
2024-02-15T02:34:08.971Z,102047.16
2024-02-15T02:36:37.454Z,102044.75
2024-02-15T02:39:04.520Z,102047.38
2024-02-15T02:41:31.533Z,102050.81
2024-02-15T02:43:58.992Z,102044.06
2024-02-15T02:46:25.965Z,102041.47
2024-02-15T02:48:53.115Z,102045.81
2024-02-15T02:51:20.645Z,102036.13
2024-02-15T02:53:47.877Z,102032.91
2024-02-15T02:56:15.980Z,102025.91
2024-02-15T02:58:45.686Z,102034.72
2024-02-15T03:01:12.957Z,102027.44
2024-02-15T03:03:40.926Z,102031.75
2024-02-15T03:08:35.421Z,102033.22
2024-02-15T03:11:02.975Z,102034.56
2024-02-15T03:13:30.468Z,102036.06
2024-02-15T03:15:57.457Z,102040.44
2024-02-15T03:18:24.646Z,102039.63
2024-02-15T03:20:51.763Z,102040.38
2024-02-15T03:23:18.642Z,102041.50
2024-02-15T03:25:45.540Z,102036.13
2024-02-15T03:28:12.425Z,102031.34
2024-02-15T03:30:39.304Z,102037.44
2024-02-15T03:33:07.667Z,102037.47
2024-02-15T03:35:35.560Z,102033.38
2024-02-15T03:38:02.562Z,102027.28
2024-02-15T03:40:31.706Z,102031.09
2024-02-15T03:42:59.385Z,102029.97
2024-02-15T03:45:27.708Z,102025.31
2024-02-15T03:47:56.787Z,102030.81
2024-02-15T03:50:24.481Z,102027.69
2024-02-15T03:52:52.150Z,102031.69
2024-02-15T03:55:19.968Z,102036.84
2024-02-15T03:57:48.860Z,102040.38
2024-02-15T04:00:16.636Z,102046.66
2024-02-15T04:02:44.933Z,102043.25
2024-02-15T04:05:13.514Z,102037.19
2024-02-15T04:07:40.673Z,102037.09
2024-02-15T04:10:09.636Z,102039.09
2024-02-15T04:12:49.556Z,102042.66
2024-02-15T04:15:18.963Z,102045.53
2024-02-15T04:17:47.164Z,102045.22
2024-02-15T04:20:16.613Z,102046.03
2024-02-15T04:22:44.809Z,102042.16
2024-02-15T04:25:12.670Z,102036.72
2024-02-15T04:27:40.373Z,102039.81
2024-02-15T04:30:09.183Z,102037.91
2024-02-15T04:32:37.895Z,102036.66
2024-02-15T04:35:08.264Z,102037.66
2024-02-15T04:37:37.693Z,102041.94
2024-02-15T04:40:11.669Z,102039.06
2024-02-15T04:42:46.300Z,102035.06
2024-02-15T04:45:16.291Z,102041.16
2024-02-15T04:47:58.300Z,102037.88
2024-02-15T04:50:27.089Z,102038.88
2024-02-15T04:52:55.930Z,102037.31
2024-02-15T04:55:24.031Z,102032.66
2024-02-15T04:57:56.242Z,102030.38
2024-02-15T05:00:24.429Z,102033.63
2024-02-15T05:02:51.458Z,102022.97
2024-02-15T05:05:19.094Z,102023.44
2024-02-15T05:07:45.982Z,102029.41
2024-02-15T05:10:15.739Z,102019.66
2024-02-15T05:12:43.852Z,102020.56
2024-02-15T05:15:12.954Z,102025.59
2024-02-15T05:17:44.992Z,102024.78
2024-02-15T05:20:13.997Z,102023.00
2024-02-15T05:22:48.930Z,102035.47
2024-02-15T05:25:23.398Z,102025.22
2024-02-15T05:27:50.579Z,102033.47
2024-02-15T05:30:17.488Z,102035.16
2024-02-15T05:32:46.801Z,102025.78
2024-02-15T05:35:14.197Z,102029.78
2024-02-15T05:37:41.116Z,102027.41
2024-02-15T05:40:16.570Z,102028.88
2024-02-15T05:42:46.716Z,102033.50
2024-02-15T05:45:36.067Z,102030.81
2024-02-15T05:48:07.706Z,102032.47
2024-02-15T05:50:37.348Z,102029.50
2024-02-15T05:53:05.099Z,102034.75
2024-02-15T05:55:35.023Z,102028.44
2024-02-15T05:58:03.772Z,102033.38
2024-02-15T06:00:32.108Z,102034.75
2024-02-15T06:02:59.606Z,102025.59
2024-02-15T06:05:27.789Z,102028.16
2024-02-15T06:07:54.782Z,102025.47
2024-02-15T06:10:21.759Z,102037.63
2024-02-15T06:12:48.658Z,102033.19
2024-02-15T06:15:17.785Z,102036.31
2024-02-15T06:17:48.329Z,102032.00
2024-02-15T06:20:19.207Z,102035.84
2024-02-15T06:22:47.851Z,102032.75
2024-02-15T06:25:16.573Z,102029.25
2024-02-15T06:27:44.056Z,102027.38
2024-02-15T06:30:31.252Z,102036.63
2024-02-15T06:33:17.858Z,102044.16
2024-02-15T06:36:05.179Z,102049.25
2024-02-15T06:38:51.684Z,102053.66
2024-02-15T06:41:21.610Z,102052.88
2024-02-15T06:43:49.585Z,102055.72
2024-02-15T06:46:16.511Z,102052.03
2024-02-15T06:48:45.918Z,102048.28
2024-02-15T06:51:19.046Z,102051.03
2024-02-15T06:53:46.274Z,102052.75
2024-02-15T06:56:15.284Z,102054.88
2024-02-15T06:58:42.847Z,102055.38
2024-02-15T07:01:10.913Z,102060.66
2024-02-15T07:03:38.562Z,102065.41
2024-02-15T07:06:05.775Z,102064.59
2024-02-15T07:08:33.117Z,102074.50
2024-02-15T07:10:59.985Z,102073.38
2024-02-15T07:13:28.210Z,102067.72
2024-02-15T07:15:55.227Z,102071.97
2024-02-15T07:18:27.778Z,102076.94
2024-02-15T07:21:00.728Z,102078.78
2024-02-15T07:23:29.139Z,102084.31
2024-02-15T07:25:56.221Z,102093.94
2024-02-15T07:28:23.315Z,102081.94
2024-02-15T07:30:53.600Z,102083.56
2024-02-15T07:33:22.168Z,102089.91
2024-02-15T07:35:54.757Z,102082.41
2024-02-15T07:38:26.768Z,102083.09
2024-02-15T07:40:55.055Z,102085.03
2024-02-15T07:43:22.016Z,102088.94
2024-02-15T07:45:50.566Z,102088.88
2024-02-15T07:48:17.824Z,102081.97
2024-02-15T07:50:46.320Z,102079.16
2024-02-15T07:53:13.310Z,102077.63
2024-02-15T07:55:42.899Z,102081.06
2024-02-15T07:58:09.944Z,102075.50
2024-02-15T08:00:39.381Z,102072.31
2024-02-15T08:03:06.569Z,102074.97
2024-02-15T08:05:35.023Z,102071.59
2024-02-15T08:08:02.071Z,102069.56
2024-02-15T08:10:30.113Z,102069.00
2024-02-15T08:12:59.536Z,102060.13
2024-02-15T08:15:29.204Z,102064.38
2024-02-15T08:17:56.733Z,102067.59
2024-02-15T08:20:24.251Z,102066.13
2024-02-15T08:22:51.351Z,102064.59
2024-02-15T08:25:19.363Z,102067.38
2024-02-15T08:27:53.391Z,102073.41
2024-02-15T08:30:24.044Z,102066.59
2024-02-15T08:32:55.960Z,102072.88
2024-02-15T08:35:23.881Z,102076.00
2024-02-15T08:37:53.346Z,102072.56
2024-02-15T08:40:26.929Z,102064.69
2024-02-15T08:42:54.248Z,102068.25
2024-02-15T08:45:21.951Z,102066.22
2024-02-15T08:47:51.326Z,102069.34
2024-02-15T08:50:18.673Z,102069.75
2024-02-15T08:52:46.084Z,102064.03
2024-02-15T08:55:15.729Z,102068.66
2024-02-15T08:57:45.132Z,102065.69
2024-02-15T09:00:17.627Z,102069.00
2024-02-15T09:02:46.352Z,102074.22
2024-02-15T09:05:18.570Z,102062.66
2024-02-15T09:07:48.968Z,102066.53
2024-02-15T09:10:18.381Z,102067.66
2024-02-15T09:12:48.695Z,102070.84
2024-02-15T09:15:16.418Z,102067.88
2024-02-15T09:17:44.807Z,102068.66
2024-02-15T09:20:17.061Z,102064.91
2024-02-15T09:22:45.580Z,102055.78
2024-02-15T09:25:14.275Z,102064.25
2024-02-15T09:27:42.898Z,102054.56
2024-02-15T09:30:11.027Z,102054.56
2024-02-15T09:32:38.413Z,102049.38
2024-02-15T09:35:09.255Z,102051.91
2024-02-15T09:37:39.948Z,102048.75
2024-02-15T09:40:11.390Z,102048.97
2024-02-15T09:42:41.618Z,102044.97
2024-02-15T09:45:12.373Z,102053.31
2024-02-15T09:47:43.280Z,102046.84
2024-02-15T09:50:15.749Z,102044.47
2024-02-15T09:52:47.084Z,102042.66
2024-02-15T09:55:15.860Z,102059.78
2024-02-15T09:57:48.014Z,102061.25
2024-02-15T10:00:17.152Z,102055.03
2024-02-15T10:02:49.007Z,102055.66
2024-02-15T10:05:19.867Z,102051.28
2024-02-15T10:07:48.079Z,102051.34
2024-02-15T10:10:22.274Z,102047.78
2024-02-15T10:12:49.858Z,102051.63
2024-02-15T10:15:37.695Z,102052.19
2024-02-15T10:18:09.042Z,102059.69
2024-02-15T10:20:38.586Z,102059.28
2024-02-15T10:23:10.312Z,102046.31
2024-02-15T10:25:39.927Z,102046.50
2024-02-15T10:28:08.583Z,102042.72
2024-02-15T10:30:46.974Z,102037.09
2024-02-15T10:33:26.967Z,102033.06
2024-02-15T10:36:10.332Z,102025.56
2024-02-15T10:38:37.899Z,102030.50
2024-02-15T10:41:06.542Z,102021.56
2024-02-15T10:43:39.302Z,102019.84
2024-02-15T10:46:11.025Z,102020.34
2024-02-15T10:48:39.532Z,102023.13
2024-02-15T10:51:11.730Z,102014.16
2024-02-15T10:53:46.790Z,102016.22
2024-02-15T10:56:21.012Z,102004.41
2024-02-15T10:58:51.875Z,101998.72
2024-02-15T11:01:58.743Z,102012.50
2024-02-15T11:04:33.424Z,101999.78
2024-02-15T11:07:03.443Z,102000.91
2024-02-15T11:09:31.004Z,101995.16
2024-02-15T11:11:58.452Z,101996.72
2024-02-15T11:14:29.926Z,101985.66
2024-02-15T11:16:58.795Z,101987.19
2024-02-15T11:19:40.391Z,101983.59
2024-02-15T11:22:13.207Z,101982.44
2024-02-15T11:24:49.630Z,101985.25
2024-02-15T11:27:29.774Z,101986.19
2024-02-15T11:29:59.801Z,101971.53
2024-02-15T11:32:46.833Z,101966.91
2024-02-15T11:35:19.217Z,101971.25
2024-02-15T11:37:49.065Z,101968.91
2024-02-15T11:40:18.294Z,101963.88
2024-02-15T11:42:45.979Z,101969.38
2024-02-15T11:45:13.947Z,101956.41
2024-02-15T11:47:50.061Z,101952.41
2024-02-15T11:50:19.418Z,101954.50
2024-02-15T11:52:47.487Z,101949.03
2024-02-15T11:55:14.570Z,101942.81
2024-02-15T11:57:52.087Z,101942.56
2024-02-15T12:00:44.644Z,101940.25
2024-02-15T12:03:33.151Z,101930.72
2024-02-15T12:06:20.221Z,101918.94
2024-02-15T12:09:07.016Z,101923.50
2024-02-15T12:11:53.956Z,101912.59
2024-02-15T12:14:39.747Z,101919.41
2024-02-15T12:17:27.597Z,101914.03
2024-02-15T12:19:56.942Z,101912.75
2024-02-15T12:22:28.654Z,101913.25
2024-02-15T12:24:59.794Z,101908.19
2024-02-15T12:27:28.395Z,101907.94
2024-02-15T12:29:59.048Z,101900.75
2024-02-15T12:32:28.164Z,101893.44
2024-02-15T12:35:23.939Z,101887.88
2024-02-15T12:38:06.535Z,101892.66
2024-02-15T12:40:41.289Z,101896.34
2024-02-15T12:43:11.013Z,101887.09
2024-02-15T12:45:39.868Z,101879.09
2024-02-15T12:48:08.416Z,101875.19
2024-02-15T12:50:36.252Z,101875.75
2024-02-15T12:53:04.262Z,101875.97
2024-02-15T12:55:35.611Z,101870.69
2024-02-15T12:58:05.267Z,101862.03
2024-02-15T13:00:34.964Z,101862.50
2024-02-15T13:03:05.144Z,101864.56
2024-02-15T13:05:33.563Z,101859.94
2024-02-15T13:08:02.472Z,101850.56
2024-02-15T13:10:30.863Z,101856.47
2024-02-15T13:12:58.778Z,101854.72
2024-02-15T13:15:34.802Z,101856.44
2024-02-15T13:18:05.835Z,101854.56
2024-02-15T13:20:35.454Z,101852.88
2024-02-15T13:23:15.985Z,101844.84
2024-02-15T13:25:44.967Z,101848.47
2024-02-15T13:28:14.626Z,101848.06
2024-02-15T13:30:44.961Z,101847.66
2024-02-15T13:33:18.066Z,101839.63
2024-02-15T13:35:45.651Z,101832.75
2024-02-15T13:38:16.605Z,101831.25
2024-02-15T13:40:45.792Z,101828.28
2024-02-15T13:43:13.223Z,101828.91
2024-02-15T13:45:42.595Z,101829.38
2024-02-15T13:48:11.035Z,101823.38
2024-02-15T13:50:40.456Z,101822.13
2024-02-15T13:53:08.033Z,101814.09
2024-02-15T13:55:37.424Z,101814.84
2024-02-15T13:58:04.530Z,101812.03
2024-02-15T14:00:35.451Z,101804.59
2024-02-15T14:03:04.457Z,101810.31
2024-02-15T14:05:32.017Z,101804.91
2024-02-15T14:08:02.879Z,101805.31
2024-02-15T14:10:32.236Z,101803.59
2024-02-15T14:12:59.742Z,101803.44
2024-02-15T14:15:27.189Z,101806.78
2024-02-15T14:17:56.874Z,101802.47
2024-02-15T14:20:24.517Z,101797.72
2024-02-15T14:22:58.676Z,101799.72
2024-02-15T14:25:27.226Z,101795.78
2024-02-15T14:27:58.513Z,101791.94
2024-02-15T14:30:45.484Z,101792.97
2024-02-15T14:33:22.003Z,101787.84
2024-02-15T14:35:51.626Z,101794.56
2024-02-15T14:38:20.691Z,101783.53
2024-02-15T14:40:57.266Z,101782.38
2024-02-15T14:43:28.074Z,101783.13
2024-02-15T14:45:58.043Z,101777.06
2024-02-15T14:48:26.388Z,101775.09
2024-02-15T14:50:57.356Z,101774.75
2024-02-15T14:53:25.335Z,101767.31
2024-02-15T14:55:53.095Z,101765.28
2024-02-15T14:58:23.394Z,101766.94
2024-02-15T15:00:51.035Z,101770.53
2024-02-15T15:03:18.626Z,101773.06
2024-02-15T15:06:05.356Z,101764.28
2024-02-15T15:08:52.592Z,101761.03
2024-02-15T15:11:38.463Z,101765.91
2024-02-15T15:14:07.273Z,101773.06
2024-02-15T15:16:35.301Z,101770.63
2024-02-15T15:19:03.630Z,101773.97
2024-02-15T15:21:30.720Z,101786.72
2024-02-15T15:23:58.085Z,101776.19
2024-02-15T15:26:25.549Z,101776.78
2024-02-15T15:28:52.633Z,101779.59
2024-02-15T15:31:22.589Z,101784.75
2024-02-15T15:33:54.096Z,101777.75
2024-02-15T15:36:23.178Z,101781.72
2024-02-15T15:38:51.760Z,101777.31
2024-02-15T15:41:19.678Z,101774.25
2024-02-15T15:43:47.378Z,101769.56
2024-02-15T15:46:17.326Z,101770.53
2024-02-15T15:48:47.279Z,101768.38
2024-02-15T15:51:15.938Z,101769.16
2024-02-15T15:53:46.369Z,101759.66
2024-02-15T15:56:17.955Z,101770.75
2024-02-15T15:58:46.698Z,101766.31
2024-02-15T16:01:14.916Z,101772.88
2024-02-15T16:03:42.563Z,101760.75
2024-02-15T16:06:09.794Z,101759.41
2024-02-15T16:08:37.339Z,101760.41
2024-02-15T16:11:07.858Z,101761.75
2024-02-15T16:13:35.964Z,101764.63
2024-02-15T16:16:05.225Z,101768.75
2024-02-15T16:18:32.700Z,101779.28
2024-02-15T16:20:59.868Z,101778.16
2024-02-15T16:23:26.866Z,101773.13
2024-02-15T16:25:53.952Z,101771.97
2024-02-15T16:28:21.686Z,101779.31
2024-02-15T16:30:49.724Z,101780.97
2024-02-15T16:33:17.370Z,101772.19
2024-02-15T16:35:44.806Z,101776.78
2024-02-15T16:38:11.866Z,101781.75
2024-02-15T16:40:38.894Z,101781.19
2024-02-15T16:43:06.189Z,101775.03
2024-02-15T16:45:34.728Z,101779.03
2024-02-15T16:48:05.343Z,101777.03
2024-02-15T16:50:32.877Z,101768.94
2024-02-15T16:53:00.866Z,101765.81
2024-02-15T16:55:33.056Z,101766.44
2024-02-15T16:58:05.018Z,101780.41
2024-02-15T17:00:33.606Z,101778.03
2024-02-15T17:03:01.006Z,101789.84
2024-02-15T17:05:29.599Z,101787.16
2024-02-15T17:08:01.147Z,101791.66
2024-02-15T17:10:29.608Z,101797.25
2024-02-15T17:12:56.619Z,101795.41
2024-02-15T17:15:27.359Z,101799.91
2024-02-15T17:17:55.623Z,101797.16
2024-02-15T17:20:24.610Z,101798.28
2024-02-15T17:22:53.818Z,101801.50
2024-02-15T17:25:25.632Z,101804.44
2024-02-15T17:27:56.938Z,101798.41
2024-02-15T17:30:24.959Z,101809.69
2024-02-15T17:32:52.224Z,101803.69
2024-02-15T17:35:20.521Z,101810.91
2024-02-15T17:37:47.508Z,101806.28
2024-02-15T17:40:15.180Z,101808.44
2024-02-15T17:42:43.872Z,101812.44
2024-02-15T17:45:13.044Z,101810.31
2024-02-15T17:47:41.583Z,101807.84
2024-02-15T17:50:11.634Z,101813.59
2024-02-15T17:52:38.806Z,101815.72
2024-02-15T17:55:10.140Z,101824.22
2024-02-15T17:57:40.635Z,101820.53
2024-02-15T18:00:17.987Z,101819.88
2024-02-15T18:02:50.014Z,101821.13
2024-02-15T18:05:20.339Z,101813.72
2024-02-15T18:07:48.346Z,101814.50
2024-02-15T18:10:18.267Z,101807.72
2024-02-15T18:12:45.194Z,101809.09
2024-02-15T18:15:19.957Z,101817.13
2024-02-15T18:17:47.963Z,101811.72
2024-02-15T18:20:16.665Z,101818.66
2024-02-15T18:22:45.530Z,101817.13
2024-02-15T18:25:12.556Z,101815.91
2024-02-15T18:27:39.879Z,101814.81
2024-02-15T18:30:14.185Z,101809.56
2024-02-15T18:32:41.911Z,101821.25
2024-02-15T18:35:13.935Z,101816.50
2024-02-15T18:37:42.540Z,101807.50
2024-02-15T18:40:17.865Z,101810.78
2024-02-15T18:42:51.618Z,101817.00
2024-02-15T18:45:19.404Z,101817.78
2024-02-15T18:47:46.938Z,101813.00
2024-02-15T18:50:14.269Z,101816.09
2024-02-15T18:52:42.198Z,101817.66
2024-02-15T18:55:11.841Z,101813.66
2024-02-15T18:57:39.060Z,101821.75
2024-02-15T19:00:20.668Z,101823.81
2024-02-15T19:02:58.438Z,101819.78
2024-02-15T19:05:26.662Z,101818.41
2024-02-15T19:07:54.658Z,101819.66
2024-02-15T19:10:22.992Z,101816.28
2024-02-15T19:12:53.508Z,101818.06
2024-02-15T19:15:21.201Z,101822.03
2024-02-15T19:17:48.613Z,101820.66
2024-02-15T19:20:17.040Z,101821.81
2024-02-15T19:22:44.206Z,101822.06
2024-02-15T19:25:19.132Z,101817.91
2024-02-15T19:27:46.978Z,101821.84
2024-02-15T19:30:14.544Z,101822.59
2024-02-15T19:32:42.348Z,101830.59
2024-02-15T19:35:09.678Z,101820.00
2024-02-15T19:37:36.861Z,101817.09
2024-02-15T19:40:08.750Z,101822.44
2024-02-15T19:42:36.877Z,101815.63
2024-02-15T19:45:04.348Z,101813.84
2024-02-15T19:47:32.492Z,101813.97
2024-02-15T19:49:59.542Z,101815.38
2024-02-15T19:52:26.894Z,101812.63
2024-02-15T19:54:53.944Z,101819.69
2024-02-15T19:57:21.326Z,101813.84
2024-02-15T19:59:49.747Z,101822.09
2024-02-15T20:02:17.643Z,101817.06
2024-02-15T20:04:46.265Z,101815.66
2024-02-15T20:07:13.506Z,101818.75
2024-02-15T20:09:47.036Z,101822.34
2024-02-15T20:12:15.795Z,101814.84
2024-02-15T20:14:43.515Z,101813.72
2024-02-15T20:17:11.895Z,101818.13
2024-02-15T20:19:39.950Z,101815.94
2024-02-15T20:22:10.394Z,101815.34
2024-02-15T20:24:40.420Z,101811.34
2024-02-15T20:27:07.557Z,101811.41
2024-02-15T20:29:36.770Z,101814.53
2024-02-15T20:32:05.867Z,101812.63
2024-02-15T20:34:36.924Z,101805.19
2024-02-15T20:37:05.465Z,101816.44
2024-02-15T20:39:36.589Z,101811.31
2024-02-15T20:42:04.196Z,101814.44
2024-02-15T20:44:31.509Z,101820.06
2024-02-15T20:46:58.568Z,101813.91
2024-02-15T20:49:26.305Z,101811.25
2024-02-15T20:51:53.302Z,101818.41
2024-02-15T20:54:22.199Z,101816.19
2024-02-15T20:56:50.781Z,101815.78
2024-02-15T20:59:18.763Z,101814.06
2024-02-15T21:01:45.766Z,101813.75
2024-02-15T21:04:13.737Z,101819.88
2024-02-15T21:06:41.397Z,101811.06
2024-02-15T21:09:15.372Z,101819.69
2024-02-15T21:11:46.658Z,101823.38
2024-02-15T21:14:16.562Z,101812.56
2024-02-15T21:16:44.140Z,101817.00
2024-02-15T21:19:12.228Z,101815.78
2024-02-15T21:21:45.372Z,101813.28
2024-02-15T21:24:12.953Z,101813.69
2024-02-15T21:26:44.079Z,101815.75
2024-02-15T21:29:13.530Z,101817.53
2024-02-15T21:31:40.510Z,101818.28
2024-02-15T21:34:10.463Z,101821.50
2024-02-15T21:36:37.737Z,101826.72
2024-02-15T21:39:06.559Z,101828.72
2024-02-15T21:41:35.968Z,101822.97
2024-02-15T21:44:03.348Z,101824.28
2024-02-15T21:46:30.422Z,101819.69
2024-02-15T21:48:57.596Z,101827.00
2024-02-15T21:51:24.901Z,101827.31
2024-02-15T21:53:52.241Z,101819.63
2024-02-15T21:56:20.264Z,101815.78
2024-02-15T21:58:48.459Z,101812.09
2024-02-15T22:01:16.692Z,101812.41
2024-02-15T22:03:44.040Z,101800.97
2024-02-15T22:06:12.637Z,101807.84
2024-02-15T22:08:42.505Z,101807.63
2024-02-15T22:11:11.919Z,101804.34
2024-02-15T22:13:39.549Z,101792.00
2024-02-15T22:16:08.902Z,101790.91
2024-02-15T22:18:36.197Z,101799.72
2024-02-15T22:21:04.377Z,101791.94
2024-02-15T22:23:32.108Z,101793.09
2024-02-15T22:25:59.176Z,101797.38
2024-02-15T22:28:26.121Z,101798.53
2024-02-15T22:30:53.019Z,101793.09
2024-02-15T22:33:22.671Z,101794.97
2024-02-15T22:35:50.382Z,101801.34
2024-02-15T22:38:17.480Z,101794.72
2024-02-15T22:40:44.482Z,101790.34
2024-02-15T22:43:14.485Z,101796.66
2024-02-15T22:45:42.235Z,101790.53
2024-02-15T22:48:09.394Z,101790.59
2024-02-15T22:50:37.614Z,101796.47
2024-02-15T22:53:04.639Z,101799.41
2024-02-15T22:55:31.563Z,101800.72
2024-02-15T22:57:59.174Z,101793.25
2024-02-15T23:00:27.791Z,101795.56
2024-02-15T23:02:55.307Z,101793.94
2024-02-15T23:05:23.678Z,101799.81
2024-02-15T23:07:51.744Z,101795.94
2024-02-15T23:10:19.054Z,101802.59
2024-02-15T23:12:46.131Z,101797.88
2024-02-15T23:15:16.431Z,101796.31
2024-02-15T23:17:43.736Z,101799.00
2024-02-15T23:20:13.265Z,101803.19
2024-02-15T23:22:43.267Z,101802.28
2024-02-15T23:25:10.501Z,101799.94
2024-02-15T23:27:37.587Z,101803.81
2024-02-15T23:30:06.034Z,101795.78
2024-02-15T23:32:36.206Z,101796.75
2024-02-15T23:35:04.653Z,101795.00
2024-02-15T23:37:51.813Z,101802.88
2024-02-15T23:40:25.778Z,101799.25
2024-02-15T23:42:54.293Z,101795.41
2024-02-15T23:45:21.994Z,101796.00
2024-02-15T23:47:49.364Z,101796.63
2024-02-15T23:50:17.314Z,101792.22
2024-02-15T23:52:46.931Z,101792.97
2024-02-15T23:55:15.459Z,101795.84
2024-02-15T23:57:47.275Z,101800.59
